Time;durP1;ratioP1;P1;durP2;ratioP2;P2;SDS_P1;SDS_P2;PMS_P1;PMS_P2;Temp;Humidity;BMP_temperature;BMP_pressure;BME280_temperature;BME280_humidity;BME280_pressure;Samples;Min_cycle;Max_cycle;Signal;HPM_P1;HPM_P2
2023/10/24 00:00:56;;;;;;;10.47;9.53;;;14.00;35.40;;;;;;6184634;23;20641;-62
2023/10/24 00:03:22;;;;;;;10.70;10.10;;;14.00;35.10;;;;;;6158109;23;20157;-62
2023/10/24 00:05:51;;;;;;;10.80;10.30;;;14.10;35.70;;;;;;6183085;23;20191;-62
2023/10/24 00:08:17;;;;;;;9.97;9.27;;;14.20;35.20;;;;;;6182697;23;20156;-62
2023/10/24 00:10:43;;;;;;;11.03;10.43;;;14.20;35.20;;;;;;6157927;23;20861;-62
2023/10/24 00:13:08;;;;;;;10.63;10.03;;;14.30;34.90;;;;;;6182851;23;20384;-62
2023/10/24 00:15:34;;;;;;;11.33;10.63;;;14.30;35.30;;;;;;6182673;23;20161;-63
2023/10/24 00:18:00;;;;;;;10.23;9.70;;;14.40;34.40;;;;;;6182541;23;20207;-62
2023/10/24 00:20:25;;;;;;;10.00;9.50;;;14.50;34.40;;;;;;6157939;23;20587;-62
2023/10/24 00:22:51;;;;;;;10.77;10.10;;;14.60;34.10;;;;;;6157856;23;20157;-62
2023/10/24 00:25:17;;;;;;;11.10;10.50;;;14.60;33.80;;;;;;6182670;23;20152;-63
2023/10/24 00:27:42;;;;;;;9.73;9.23;;;14.60;33.40;;;;;;6182691;23;20175;-62
2023/10/24 00:30:10;;;;;;;10.20;9.70;;;14.70;33.30;;;;;;6157793;23;20186;-62
2023/10/24 00:32:36;;;;;;;10.77;10.17;;;14.70;33.60;;;;;;6157672;23;20612;-62
2023/10/24 00:35:02;;;;;;;12.30;11.50;;;14.70;33.30;;;;;;6157958;23;20408;-63
2023/10/24 00:37:28;;;;;;;11.63;10.93;;;14.70;33.20;;;;;;6157450;23;20157;-62
2023/10/24 00:39:54;;;;;;;11.13;10.47;;;14.80;33.00;;;;;;6182864;23;20391;-62
2023/10/24 00:42:19;;;;;;;10.13;9.53;;;14.70;32.70;;;;;;6182609;23;20263;-62
2023/10/24 00:44:45;;;;;;;10.27;9.77;;;14.70;32.80;;;;;;6157678;23;20222;-62
2023/10/24 00:47:11;;;;;;;10.97;10.37;;;14.70;33.10;;;;;;6184057;23;20141;-62
2023/10/24 00:49:37;;;;;;;10.90;10.30;;;14.60;33.00;;;;;;6157779;23;20153;-62
2023/10/24 00:52:03;;;;;;;10.40;9.70;;;14.60;33.40;;;;;;6157790;23;20496;-63
2023/10/24 00:54:31;;;;;;;10.03;9.47;;;14.70;33.00;;;;;;6157835;23;20475;-63
2023/10/24 00:56:57;;;;;;;11.00;10.30;;;14.70;32.90;;;;;;6157850;23;20384;-62
2023/10/24 00:59:25;;;;;;;11.13;10.40;;;14.70;32.80;;;;;;6157528;23;20391;-62
2023/10/24 01:01:51;;;;;;;11.87;11.00;;;14.50;32.70;;;;;;6157633;23;20431;-63
2023/10/24 01:04:18;;;;;;;10.93;10.33;;;14.40;33.30;;;;;;6157637;23;20869;-62
2023/10/24 01:06:44;;;;;;;10.83;10.20;;;14.20;33.50;;;;;;6157574;23;20716;-63
2023/10/24 01:09:10;;;;;;;12.07;10.97;;;14.10;34.00;;;;;;6157458;23;20404;-63
2023/10/24 01:11:37;;;;;;;11.03;10.43;;;14.20;34.00;;;;;;6157686;23;20720;-62
2023/10/24 01:14:03;;;;;;;11.00;10.30;;;14.20;34.00;;;;;;6157591;23;20419;-62
2023/10/24 01:16:32;;;;;;;10.80;10.10;;;14.40;33.80;;;;;;6157682;23;20380;-63
2023/10/24 01:18:57;;;;;;;11.27;10.57;;;14.50;33.10;;;;;;6157429;23;20185;-63
2023/10/24 01:21:23;;;;;;;10.93;10.43;;;14.60;32.70;;;;;;6157524;23;20483;-62
2023/10/24 01:23:49;;;;;;;10.97;10.40;;;14.70;32.50;;;;;;6157446;23;20211;-63
2023/10/24 01:26:17;;;;;;;10.30;9.80;;;14.70;32.30;;;;;;6157663;23;20200;-63
2023/10/24 01:28:43;;;;;;;10.57;9.77;;;14.70;31.90;;;;;;6157334;23;20152;-62
2023/10/24 01:31:08;;;;;;;11.53;10.63;;;14.80;32.20;;;;;;6185147;23;20850;-62
2023/10/24 01:33:34;;;;;;;10.40;9.77;;;14.80;32.00;;;;;;6185770;23;20372;-63
2023/10/24 01:35:59;;;;;;;10.17;9.67;;;14.80;31.80;;;;;;6184077;23;20163;-62
2023/10/24 01:38:25;;;;;;;10.23;9.60;;;14.90;31.70;;;;;;6183723;23;20207;-63
2023/10/24 01:40:51;;;;;;;10.00;9.47;;;14.90;31.70;;;;;;6183885;23;20181;-62
2023/10/24 01:43:17;;;;;;;9.50;9.10;;;15.00;31.60;;;;;;6183995;23;20380;-62
2023/10/24 01:45:43;;;;;;;9.97;9.47;;;15.00;31.40;;;;;;6183769;23;20199;-62
2023/10/24 01:48:08;;;;;;;10.40;9.80;;;15.00;31.50;;;;;;6183933;23;20219;-63
2023/10/24 01:50:34;;;;;;;9.97;9.50;;;15.00;31.30;;;;;;6185468;23;20207;-62
2023/10/24 01:52:59;;;;;;;10.10;9.50;;;15.00;31.20;;;;;;6183960;23;20161;-62
2023/10/24 01:55:25;;;;;;;10.40;9.67;;;15.00;31.00;;;;;;6183964;23;20175;-62
2023/10/24 01:57:51;;;;;;;10.33;9.73;;;15.00;31.10;;;;;;6185256;23;20228;-63
2023/10/24 02:00:17;;;;;;;10.67;10.03;;;15.00;31.20;;;;;;6158888;23;20161;-62
2023/10/24 02:02:42;;;;;;;10.37;9.87;;;15.00;31.50;;;;;;6159123;23;20149;-63
2023/10/24 02:05:09;;;;;;;10.27;9.60;;;15.00;31.50;;;;;;6182953;23;20659;-62
2023/10/24 02:07:35;;;;;;;10.30;9.70;;;15.00;31.60;;;;;;6158853;23;20291;-62
2023/10/24 02:10:01;;;;;;;11.30;9.77;;;15.00;31.50;;;;;;6183801;23;20420;-62
2023/10/24 02:12:27;;;;;;;10.37;9.87;;;15.00;31.50;;;;;;6183773;23;20156;-63
2023/10/24 02:14:53;;;;;;;10.77;10.17;;;15.00;31.70;;;;;;6183768;23;20384;-62
2023/10/24 02:17:18;;;;;;;11.03;10.43;;;15.00;31.90;;;;;;6158681;23;20486;-62
2023/10/24 02:19:44;;;;;;;11.53;10.60;;;15.00;31.90;;;;;;6158849;23;20156;-62
2023/10/24 02:22:09;;;;;;;11.20;10.50;;;14.90;31.90;;;;;;6158875;23;20263;-63
2023/10/24 02:24:36;;;;;;;10.67;9.90;;;15.00;32.10;;;;;;6158775;23;20160;-63
2023/10/24 02:27:01;;;;;;;11.97;11.17;;;15.00;31.90;;;;;;6183610;23;20160;-63
2023/10/24 02:29:27;;;;;;;10.57;10.07;;;14.90;31.80;;;;;;6158462;23;20384;-62
2023/10/24 02:31:53;;;;;;;10.90;10.40;;;14.90;31.80;;;;;;6158832;23;20161;-62
2023/10/24 02:34:19;;;;;;;10.97;10.37;;;14.90;32.10;;;;;;6184976;23;20157;-62
2023/10/24 02:36:45;;;;;;;10.60;10.10;;;14.90;32.10;;;;;;6158621;23;20161;-63
2023/10/24 02:39:11;;;;;;;11.63;11.03;;;15.00;32.10;;;;;;6158551;23;20388;-63
2023/10/24 02:41:36;;;;;;;11.03;10.53;;;15.00;31.90;;;;;;6158429;23;20477;-63
2023/10/24 02:44:02;;;;;;;10.00;9.50;;;15.00;31.80;;;;;;6158943;23;20493;-63
2023/10/24 02:46:28;;;;;;;10.10;9.70;;;15.00;32.00;;;;;;6183717;23;20544;-62
2023/10/24 02:48:54;;;;;;;10.57;9.97;;;15.00;31.90;;;;;;6183370;23;20388;-63
2023/10/24 02:51:20;;;;;;;11.00;10.60;;;15.00;32.50;;;;;;6158905;23;20157;-63
2023/10/24 02:53:46;;;;;;;11.60;10.90;;;15.00;31.80;;;;;;6158957;23;20165;-63
2023/10/24 02:56:12;;;;;;;10.30;9.90;;;15.00;32.00;;;;;;6158751;23;20689;-63
2023/10/24 02:58:38;;;;;;;11.13;10.53;;;15.00;32.20;;;;;;6183300;23;20427;-63
2023/10/24 03:01:04;;;;;;;11.07;10.57;;;14.90;32.20;;;;;;6158540;23;20550;-62
2023/10/24 03:03:31;;;;;;;11.40;10.60;;;14.90;32.60;;;;;;6158388;23;20956;-62
2023/10/24 03:05:57;;;;;;;10.23;9.63;;;14.90;32.30;;;;;;6158325;23;20406;-63
2023/10/24 03:08:22;;;;;;;10.90;10.33;;;15.00;31.90;;;;;;6183021;23;20454;-63
2023/10/24 03:10:48;;;;;;;10.40;9.90;;;15.00;32.20;;;;;;6158507;23;20187;-63
2023/10/24 03:13:14;;;;;;;11.60;11.00;;;15.00;32.20;;;;;;6184770;23;20204;-63
2023/10/24 03:15:41;;;;;;;10.50;10.00;;;15.00;31.40;;;;;;6158274;23;20206;-63
2023/10/24 03:18:07;;;;;;;10.17;9.70;;;14.90;31.70;;;;;;6158119;23;20164;-63
2023/10/24 03:20:33;;;;;;;11.73;11.13;;;14.90;31.20;;;;;;6184612;23;20794;-63
2023/10/24 03:22:58;;;;;;;9.97;9.50;;;14.80;31.10;;;;;;6158362;23;20383;-63
2023/10/24 03:25:24;;;;;;;11.03;10.33;;;14.70;31.30;;;;;;6183128;23;20380;-62
2023/10/24 03:27:54;;;;;;;10.63;9.97;;;14.70;31.60;;;;;;6158014;23;20153;-62
2023/10/24 03:30:21;;;;;;;9.87;9.47;;;14.60;31.50;;;;;;6157988;23;20381;-62
2023/10/24 03:32:46;;;;;;;10.37;9.77;;;14.50;32.10;;;;;;6158847;23;20391;-58
2023/10/24 03:35:13;;;;;;;10.60;10.00;;;14.50;32.40;;;;;;6183194;23;20837;-58
2023/10/24 03:37:39;;;;;;;10.23;9.83;;;14.40;32.70;;;;;;6158186;23;20164;-58
2023/10/24 03:40:05;;;;;;;9.73;9.23;;;14.50;33.10;;;;;;6182219;23;20696;-62
2023/10/24 03:42:31;;;;;;;11.27;10.77;;;14.50;32.60;;;;;;6157019;23;20185;-59
2023/10/24 03:44:56;;;;;;;12.30;11.50;;;14.60;32.40;;;;;;6152360;23;20941;-59
2023/10/24 03:47:22;;;;;;;9.90;9.40;;;14.60;32.10;;;;;;6153172;23;20585;-58
2023/10/24 03:49:48;;;;;;;10.67;10.17;;;14.60;32.30;;;;;;6150182;23;20168;-59
2023/10/24 03:52:14;;;;;;;11.00;10.40;;;14.60;32.60;;;;;;6151618;23;20265;-58
2023/10/24 03:54:39;;;;;;;11.53;10.80;;;14.70;32.50;;;;;;6152828;23;20606;-59
2023/10/24 03:57:05;;;;;;;10.47;9.80;;;14.70;32.60;;;;;;6151977;23;20389;-63
2023/10/24 03:59:31;;;;;;;10.70;10.00;;;14.80;32.30;;;;;;6152003;23;20176;-62
2023/10/24 04:01:57;;;;;;;10.73;10.13;;;14.80;32.20;;;;;;6152616;23;20516;-63
2023/10/24 04:04:23;;;;;;;11.37;10.67;;;14.90;31.90;;;;;;6152536;23;20385;-63
2023/10/24 04:06:49;;;;;;;10.20;9.60;;;14.90;31.70;;;;;;6152544;23;20153;-62
2023/10/24 04:09:14;;;;;;;11.13;10.43;;;14.90;31.70;;;;;;6152432;23;20380;-62
2023/10/24 04:11:40;;;;;;;11.70;11.00;;;15.00;31.70;;;;;;6152284;23;20315;-62
2023/10/24 04:14:06;;;;;;;11.30;10.73;;;15.00;31.70;;;;;;6151859;23;20595;-62
2023/10/24 04:16:32;;;;;;;11.97;11.27;;;15.00;31.80;;;;;;6152753;23;20165;-62
2023/10/24 04:18:59;;;;;;;11.90;11.23;;;15.00;31.90;;;;;;6152261;23;20901;-62
2023/10/24 04:21:24;;;;;;;14.03;13.20;;;15.00;32.10;;;;;;6152208;23;20192;-62
2023/10/24 04:23:50;;;;;;;11.60;10.77;;;15.00;32.20;;;;;;6152935;23;20376;-63
2023/10/24 04:26:16;;;;;;;11.30;10.70;;;15.00;32.20;;;;;;6152121;23;20157;-63
2023/10/24 04:28:42;;;;;;;12.10;11.53;;;15.00;32.00;;;;;;6151321;23;20577;-63
2023/10/24 04:31:08;;;;;;;10.63;10.13;;;15.00;32.00;;;;;;6151343;23;20540;-62
2023/10/24 04:33:34;;;;;;;12.10;11.00;;;14.90;32.30;;;;;;6148107;23;20244;-63
2023/10/24 04:36:00;;;;;;;11.30;10.70;;;14.80;32.60;;;;;;6149530;23;20380;-58
2023/10/24 04:38:26;;;;;;;11.60;11.00;;;14.70;32.90;;;;;;6150606;23;20392;-58
2023/10/24 04:40:51;;;;;;;11.53;11.03;;;14.60;33.70;;;;;;6150799;23;20200;-58
2023/10/24 04:43:17;;;;;;;10.53;9.93;;;14.70;33.80;;;;;;6150618;23;20653;-62
2023/10/24 04:45:43;;;;;;;12.27;11.23;;;14.70;33.50;;;;;;6150995;23;20405;-62
2023/10/24 04:48:09;;;;;;;11.30;10.70;;;14.80;33.40;;;;;;6151264;23;20431;-62
2023/10/24 04:50:38;;;;;;;11.67;11.07;;;14.90;33.20;;;;;;6151216;23;20157;-63
2023/10/24 04:53:04;;;;;;;11.40;10.80;;;14.90;32.90;;;;;;6151872;23;20179;-63
2023/10/24 04:55:30;;;;;;;11.90;11.30;;;15.00;32.60;;;;;;6151182;23;20388;-62
2023/10/24 04:57:56;;;;;;;11.40;10.80;;;15.00;32.70;;;;;;6150321;23;20435;-63
2023/10/24 05:00:22;;;;;;;10.80;10.10;;;15.00;32.80;;;;;;6150699;23;20490;-63
2023/10/24 05:02:47;;;;;;;10.60;10.10;;;15.10;32.70;;;;;;6151643;23;20164;-63
2023/10/24 05:05:13;;;;;;;11.60;11.00;;;15.10;32.70;;;;;;6152678;23;20372;-63
2023/10/24 05:07:38;;;;;;;12.10;11.30;;;15.10;32.70;;;;;;6153190;23;20157;-63
2023/10/24 05:10:05;;;;;;;11.10;10.30;;;15.10;32.80;;;;;;6152985;23;20287;-63
2023/10/24 05:12:32;;;;;;;11.33;10.70;;;15.10;32.60;;;;;;6152450;23;20165;-62
2023/10/24 05:14:57;;;;;;;11.97;11.20;;;15.10;33.10;;;;;;6152532;23;20381;-63
2023/10/24 05:17:23;;;;;;;12.70;11.80;;;15.10;32.40;;;;;;6153105;23;20459;-62
2023/10/24 05:19:48;;;;;;;12.40;11.60;;;15.20;32.40;;;;;;6153339;23;20165;-63
2023/10/24 05:22:14;;;;;;;12.23;11.63;;;15.10;32.40;;;;;;6152596;23;20181;-63
2023/10/24 05:24:40;;;;;;;13.77;12.97;;;15.20;32.30;;;;;;6153519;23;20264;-63
2023/10/24 05:27:06;;;;;;;13.97;13.20;;;15.10;32.60;;;;;;6152482;23;20398;-63
2023/10/24 05:29:35;;;;;;;13.37;12.47;;;15.20;32.60;;;;;;6151886;23;20161;-63
2023/10/24 05:32:01;;;;;;;13.47;12.57;;;15.10;33.40;;;;;;6153224;23;20965;-63
2023/10/24 05:34:27;;;;;;;13.50;12.70;;;15.10;32.90;;;;;;6153148;23;20413;-63
2023/10/24 05:36:53;;;;;;;13.80;13.10;;;15.10;32.80;;;;;;6153363;23;20185;-63
2023/10/24 05:39:19;;;;;;;13.40;12.57;;;15.10;33.10;;;;;;6152519;23;20436;-63
2023/10/24 05:41:46;;;;;;;11.73;11.07;;;15.10;33.00;;;;;;6154091;23;20417;-63
2023/10/24 05:44:12;;;;;;;14.40;13.33;;;15.10;32.90;;;;;;6151867;23;20472;-63
2023/10/24 05:46:37;;;;;;;14.17;13.17;;;15.10;32.90;;;;;;6180415;23;20438;-63
2023/10/24 05:49:03;;;;;;;13.33;12.50;;;15.10;33.30;;;;;;6157522;23;20176;-63
2023/10/24 05:51:30;;;;;;;12.50;11.70;;;15.10;33.10;;;;;;6156866;23;20271;-63
2023/10/24 05:53:55;;;;;;;12.83;12.03;;;15.10;33.20;;;;;;6157469;23;20484;-63
2023/10/24 05:56:21;;;;;;;13.47;12.60;;;15.10;33.30;;;;;;6157358;23;20384;-63
2023/10/24 05:58:47;;;;;;;13.17;12.43;;;15.10;33.10;;;;;;6156382;23;20164;-63
2023/10/24 06:01:13;;;;;;;14.63;13.63;;;15.20;32.90;;;;;;6155924;23;20176;-63
2023/10/24 06:03:39;;;;;;;15.00;13.83;;;15.10;32.80;;;;;;6156135;23;20159;-63
2023/10/24 06:06:05;;;;;;;13.30;12.50;;;15.10;33.00;;;;;;6155499;23;20467;-60
2023/10/24 06:08:30;;;;;;;14.33;13.53;;;15.10;32.90;;;;;;6181698;23;20156;-63
2023/10/24 06:10:57;;;;;;;13.40;12.57;;;15.10;33.00;;;;;;6156602;23;20391;-63
2023/10/24 06:13:23;;;;;;;13.43;12.53;;;15.10;33.00;;;;;;6156265;23;20164;-63
2023/10/24 06:15:49;;;;;;;14.33;13.33;;;15.10;33.10;;;;;;6157943;23;20385;-63
2023/10/24 06:18:14;;;;;;;15.33;14.30;;;15.10;33.20;;;;;;6157973;23;20419;-63
2023/10/24 06:20:40;;;;;;;16.27;15.00;;;15.00;33.40;;;;;;6157585;23;20219;-63
2023/10/24 06:23:07;;;;;;;14.40;13.50;;;15.00;34.50;;;;;;6158106;23;20256;-62
2023/10/24 06:25:38;;;;;;;14.40;13.30;;;14.90;34.70;;;;;;6157959;23;20388;-63
2023/10/24 06:28:04;;;;;;;15.07;13.63;;;14.90;34.50;;;;;;6157595;23;20381;-63
2023/10/24 06:30:31;;;;;;;14.27;13.13;;;15.00;34.80;;;;;;6157730;23;20384;-63
2023/10/24 06:32:56;;;;;;;12.90;11.50;;;15.00;34.30;;;;;;6157091;23;20379;-63
2023/10/24 06:35:22;;;;;;;13.77;12.77;;;15.00;34.10;;;;;;6183508;23;20693;-63
2023/10/24 06:37:47;;;;;;;14.20;13.07;;;15.00;34.20;;;;;;6158041;23;20488;-63
2023/10/24 06:40:13;;;;;;;13.13;12.33;;;15.00;34.20;;;;;;6158020;23;20152;-63
2023/10/24 06:42:39;;;;;;;13.83;12.70;;;15.00;34.50;;;;;;6157973;23;20286;-63
2023/10/24 06:45:06;;;;;;;14.30;13.40;;;15.00;34.70;;;;;;6127901;23;20172;-63
2023/10/24 06:47:32;;;;;;;14.07;13.20;;;15.00;34.90;;;;;;6153055;23;20400;-63
2023/10/24 06:49:58;;;;;;;13.27;12.33;;;15.00;35.10;;;;;;6152618;23;20376;-63
2023/10/24 06:52:23;;;;;;;13.90;12.97;;;15.00;35.10;;;;;;6154171;23;20204;-63
2023/10/24 06:54:49;;;;;;;12.90;12.07;;;15.00;35.70;;;;;;6153208;23;20179;-63
2023/10/24 06:57:15;;;;;;;12.47;11.77;;;15.00;35.90;;;;;;6153775;23;20149;-63
2023/10/24 06:59:40;;;;;;;13.33;12.53;;;15.00;35.90;;;;;;6152478;23;20583;-63
2023/10/24 07:02:06;;;;;;;13.93;12.87;;;15.00;35.90;;;;;;6152518;23;20236;-64
2023/10/24 07:04:32;;;;;;;12.30;11.40;;;15.00;37.10;;;;;;6152535;23;20153;-64
2023/10/24 07:06:57;;;;;;;13.20;12.40;;;15.00;37.10;;;;;;6152343;23;20217;-64
2023/10/24 07:09:23;;;;;;;13.40;12.40;;;15.00;37.10;;;;;;6151737;23;20475;-63
2023/10/24 07:11:48;;;;;;;14.13;13.20;;;15.00;37.30;;;;;;6152037;23;20169;-64
2023/10/24 07:14:14;;;;;;;13.73;12.97;;;15.00;37.30;;;;;;6152190;23;20163;-64
2023/10/24 07:16:40;;;;;;;13.37;12.57;;;15.00;37.30;;;;;;6152274;23;20200;-63
2023/10/24 07:19:05;;;;;;;13.53;12.77;;;15.10;37.30;;;;;;6151822;23;20208;-63
2023/10/24 07:21:31;;;;;;;13.20;12.30;;;15.00;37.20;;;;;;6152460;23;20503;-64
2023/10/24 07:23:58;;;;;;;13.90;12.90;;;15.00;37.40;;;;;;6152765;23;20169;-64
2023/10/24 07:26:23;;;;;;;14.07;12.90;;;15.10;37.50;;;;;;6152002;23;20157;-63
2023/10/24 07:28:49;;;;;;;13.77;12.80;;;15.10;37.50;;;;;;6151940;23;20456;-63
2023/10/24 07:31:15;;;;;;;14.10;13.10;;;15.00;37.80;;;;;;6152262;23;20761;-62
2023/10/24 07:33:41;;;;;;;14.67;13.43;;;15.10;38.30;;;;;;6152116;23;20168;-63
2023/10/24 07:36:08;;;;;;;14.17;12.87;;;15.00;38.40;;;;;;6152654;23;20205;-59
2023/10/24 07:38:34;;;;;;;13.60;12.80;;;15.00;38.50;;;;;;6151858;23;20877;-59
2023/10/24 07:41:00;;;;;;;12.97;12.10;;;15.00;38.30;;;;;;6153523;23;20420;-59
2023/10/24 07:43:26;;;;;;;13.13;12.23;;;15.00;38.80;;;;;;6152153;23;20388;-59
2023/10/24 07:45:55;;;;;;;12.17;11.37;;;15.00;39.00;;;;;;6170306;23;20535;-59
2023/10/24 07:48:21;;;;;;;13.77;13.00;;;15.00;39.10;;;;;;6156178;23;20207;-63
2023/10/24 07:50:55;;;;;;;13.37;12.47;;;15.00;39.10;;;;;;6156885;23;20434;-63
2023/10/24 07:53:22;;;;;;;13.33;12.23;;;15.00;39.50;;;;;;6157298;23;20475;-59
2023/10/24 07:55:52;;;;;;;13.07;12.13;;;15.00;39.60;;;;;;6156809;23;20384;-59
2023/10/24 07:58:19;;;;;;;13.50;12.47;;;15.10;39.60;;;;;;6156737;23;20820;-59
2023/10/24 08:00:45;;;;;;;13.03;12.23;;;15.10;39.90;;;;;;6157114;23;20476;-59
2023/10/24 08:03:15;;;;;;;13.63;12.50;;;15.10;40.40;;;;;;6157004;23;20372;-59
2023/10/24 08:05:41;;;;;;;15.20;14.00;;;15.10;41.00;;;;;;6157627;23;20384;-58
2023/10/24 08:08:07;;;;;;;14.40;13.50;;;15.10;40.80;;;;;;6156805;23;20799;-59
2023/10/24 08:10:34;;;;;;;14.53;13.63;;;15.10;40.50;;;;;;6156948;23;20388;-61
2023/10/24 08:13:00;;;;;;;14.23;13.33;;;15.10;40.60;;;;;;6156984;23;20372;-63
2023/10/24 08:15:27;;;;;;;14.57;13.47;;;15.10;40.60;;;;;;6157053;23;20871;-63
2023/10/24 08:17:53;;;;;;;13.70;12.80;;;15.10;40.90;;;;;;6156400;23;20377;-63
2023/10/24 08:20:19;;;;;;;15.73;12.77;;;15.10;41.00;;;;;;6156377;23;20387;-63
2023/10/24 08:22:45;;;;;;;13.37;12.50;;;15.10;41.70;;;;;;6156933;23;20184;-61
2023/10/24 08:25:11;;;;;;;13.97;13.27;;;15.10;40.50;;;;;;6156625;23;20454;-59
2023/10/24 08:27:36;;;;;;;12.13;11.43;;;15.10;40.70;;;;;;6157006;23;20153;-59
2023/10/24 08:30:06;;;;;;;12.40;11.60;;;15.10;40.90;;;;;;6155104;23;20252;-63
2023/10/24 20:51:23;;;;;;;7.10;6.50;;;14.30;46.60;;;;;;6189578;23;20607;-79
2023/10/24 20:53:49;;;;;;;6.77;6.47;;;14.40;46.00;;;;;;6190193;23;20370;-77
2023/10/24 20:56:14;;;;;;;7.00;6.70;;;14.40;45.50;;;;;;6191848;23;20627;-79
2023/10/24 20:58:40;;;;;;;6.93;6.53;;;14.40;45.50;;;;;;6198329;23;20180;-78
2023/10/24 21:01:12;;;;;;;7.63;7.23;;;14.50;45.20;;;;;;6168072;23;20157;-80
2023/10/24 21:03:37;;;;;;;7.07;6.60;;;14.40;45.10;;;;;;6195436;23;20133;-78
2023/10/24 21:06:03;;;;;;;7.20;6.97;;;14.40;44.00;;;;;;6173168;23;20403;-76
2023/10/24 21:08:29;;;;;;;7.70;7.40;;;14.20;44.70;;;;;;6163161;23;20541;-76
2023/10/24 21:10:55;;;;;;;8.53;7.97;;;14.10;45.20;;;;;;6163002;23;20408;-77
2023/10/24 21:13:20;;;;;;;9.80;9.20;;;14.00;45.10;;;;;;6187870;23;20583;-76
2023/10/24 21:15:57;;;;;;;7.97;7.67;;;14.00;45.80;;;;;;6159495;23;20408;-76
2023/10/24 21:18:23;;;;;;;8.00;7.50;;;14.00;45.80;;;;;;6160862;23;20145;-77
2023/10/24 21:20:49;;;;;;;7.17;6.87;;;14.10;45.80;;;;;;6161893;23;20450;-77
2023/10/24 21:23:14;;;;;;;8.07;7.47;;;14.10;44.80;;;;;;6187852;23;20614;-77
2023/10/24 21:25:40;;;;;;;6.53;6.03;;;14.10;45.20;;;;;;6162989;23;20160;-77
2023/10/24 21:28:06;;;;;;;7.13;6.73;;;14.20;45.30;;;;;;6190351;23;20196;-76
2023/10/24 21:30:32;;;;;;;6.87;6.57;;;14.30;45.40;;;;;;6166110;23;20384;-76
2023/10/24 21:32:57;;;;;;;7.40;7.00;;;14.30;44.60;;;;;;6193875;23;20144;-76
2023/10/24 21:35:23;;;;;;;6.60;6.20;;;14.30;43.90;;;;;;6192054;23;20157;-76
2023/10/24 21:37:49;;;;;;;6.73;6.43;;;14.40;43.30;;;;;;6188286;23;20152;-77
2023/10/24 21:40:14;;;;;;;6.73;6.53;;;14.40;43.00;;;;;;6188032;23;20720;-77
2023/10/24 21:42:41;;;;;;;6.97;6.57;;;14.40;42.70;;;;;;6186267;23;20674;-76
2023/10/24 21:45:06;;;;;;;6.67;6.47;;;14.40;42.60;;;;;;6159293;23;20153;-77
2023/10/24 21:47:33;;;;;;;7.20;6.90;;;14.50;42.20;;;;;;6159823;23;20510;-77
2023/10/24 21:49:58;;;;;;;6.37;5.90;;;14.40;41.90;;;;;;6186114;23;20539;-76
2023/10/24 21:52:24;;;;;;;6.07;5.87;;;14.10;43.00;;;;;;6184757;23;20387;-77
2023/10/24 21:54:49;;;;;;;6.47;6.27;;;14.10;44.10;;;;;;6160292;23;20478;-77
2023/10/24 21:57:15;;;;;;;6.77;6.40;;;14.20;44.10;;;;;;6188124;23;20260;-76
2023/10/24 21:59:40;;;;;;;5.77;5.57;;;14.20;43.40;;;;;;6186194;23;20149;-75
2023/10/24 22:02:06;;;;;;;6.63;6.33;;;14.30;43.40;;;;;;6187635;23;20228;-77
2023/10/24 22:04:33;;;;;;;6.27;6.07;;;14.30;42.60;;;;;;6186751;23;20152;-78
2023/10/24 22:06:58;;;;;;;6.17;5.97;;;14.10;42.90;;;;;;6187791;23;20183;-78
2023/10/24 22:09:24;;;;;;;6.70;6.50;;;13.90;44.50;;;;;;6162192;23;20392;-78
2023/10/24 22:11:50;;;;;;;6.40;6.20;;;13.70;44.80;;;;;;6188277;23;20467;-76
2023/10/24 22:14:15;;;;;;;6.90;6.60;;;13.70;45.70;;;;;;6187649;23;20384;-77
2023/10/24 22:16:41;;;;;;;6.77;6.50;;;13.90;45.30;;;;;;6187487;23;20232;-77
2023/10/24 22:19:06;;;;;;;6.90;6.50;;;13.90;45.10;;;;;;6161201;23;20610;-78
2023/10/24 22:21:32;;;;;;;7.07;6.77;;;13.80;44.90;;;;;;6187682;23;20179;-77
2023/10/24 22:23:58;;;;;;;7.83;7.33;;;13.60;45.40;;;;;;6159817;23;20192;-79
2023/10/24 22:26:23;;;;;;;6.80;6.60;;;13.50;46.20;;;;;;6187599;23;20580;-77
2023/10/24 22:28:49;;;;;;;7.03;6.70;;;13.40;47.30;;;;;;6160788;23;20208;-78
2023/10/24 22:31:14;;;;;;;7.00;6.70;;;13.30;48.10;;;;;;6188328;23;20156;-77
2023/10/24 22:33:41;;;;;;;7.00;6.70;;;13.20;49.10;;;;;;6187872;23;20160;-77
2023/10/24 22:36:06;;;;;;;7.30;7.00;;;13.10;50.00;;;;;;6189926;23;20168;-78
2023/10/24 22:38:32;;;;;;;7.50;7.00;;;13.10;49.90;;;;;;6163069;23;20434;-76
2023/10/24 22:40:59;;;;;;;7.60;7.20;;;13.00;50.40;;;;;;6189491;23;20495;-77
2023/10/24 22:43:25;;;;;;;6.83;6.53;;;13.00;50.00;;;;;;6162596;23;20149;-78
2023/10/24 22:45:50;;;;;;;6.60;6.30;;;12.90;50.40;;;;;;6188733;23;20482;-79
2023/10/24 22:48:16;;;;;;;6.13;5.93;;;12.90;50.50;;;;;;6188750;23;20427;-78
2023/10/24 22:50:42;;;;;;;6.70;6.30;;;13.00;50.30;;;;;;6189022;23;20180;-76
2023/10/24 22:53:07;;;;;;;6.93;6.53;;;13.00;50.40;;;;;;6189731;23;20653;-77
2023/10/24 22:55:33;;;;;;;6.30;6.00;;;13.00;50.00;;;;;;6189520;23;20176;-79
2023/10/24 22:57:58;;;;;;;6.70;6.30;;;13.00;50.20;;;;;;6188864;23;20153;-79
2023/10/24 23:00:24;;;;;;;6.40;6.20;;;13.10;50.00;;;;;;6163880;23;20156;-78
2023/10/24 23:02:49;;;;;;;6.73;6.43;;;13.10;50.00;;;;;;6189458;23;20176;-77
2023/10/24 23:05:15;;;;;;;6.73;6.43;;;13.10;49.00;;;;;;6163174;23;20224;-79
2023/10/24 23:07:41;;;;;;;6.83;6.43;;;13.20;49.20;;;;;;6189428;23;20227;-78
2023/10/24 23:10:07;;;;;;;6.73;6.23;;;13.20;49.00;;;;;;6189723;23;20235;-78
2023/10/24 23:12:33;;;;;;;6.17;5.97;;;13.40;48.90;;;;;;6189142;23;20148;-78
2023/10/24 23:15:02;;;;;;;7.07;6.77;;;13.50;48.00;;;;;;6162392;23;20416;-79
2023/10/24 23:17:29;;;;;;;7.27;6.97;;;13.60;46.00;;;;;;6189054;23;20427;-78
2023/10/24 23:19:55;;;;;;;7.23;6.93;;;13.50;45.80;;;;;;6188852;23;20376;-78
2023/10/24 23:22:24;;;;;;;7.50;7.20;;;13.30;46.70;;;;;;6188801;23;20423;-78
2023/10/24 23:24:51;;;;;;;7.70;7.40;;;13.20;47.20;;;;;;6189429;23;20712;-76
2023/10/24 23:27:16;;;;;;;7.20;7.00;;;13.20;47.40;;;;;;6162511;23;20408;-78
2023/10/24 23:29:42;;;;;;;7.53;7.23;;;13.10;47.30;;;;;;6188880;23;20396;-78
2023/10/24 23:32:07;;;;;;;7.10;6.80;;;13.20;47.10;;;;;;6162616;23;20157;-79
2023/10/24 23:34:33;;;;;;;7.07;6.87;;;13.30;47.10;;;;;;6162815;23;20153;-79
2023/10/24 23:36:58;;;;;;;7.47;7.17;;;13.40;46.80;;;;;;6187244;23;20173;-78
2023/10/24 23:39:24;;;;;;;7.03;6.73;;;13.50;45.90;;;;;;6159995;23;20165;-77
2023/10/24 23:41:49;;;;;;;7.37;6.87;;;13.60;45.40;;;;;;6186856;23;20376;-78
2023/10/24 23:44:15;;;;;;;7.57;7.17;;;13.70;44.80;;;;;;6187254;23;20591;-77
2023/10/24 23:46:40;;;;;;;7.30;6.80;;;13.70;44.10;;;;;;6160644;23;20176;-77
2023/10/24 23:49:06;;;;;;;7.80;7.50;;;13.80;43.50;;;;;;6160530;23;20157;-78
2023/10/24 23:51:31;;;;;;;8.20;7.80;;;13.70;43.50;;;;;;6187616;23;20211;-76
2023/10/24 23:53:57;;;;;;;7.57;7.27;;;13.60;43.70;;;;;;6159388;23;20176;-78
2023/10/24 23:56:22;;;;;;;8.40;8.00;;;13.40;44.60;;;;;;6160246;23;20183;-78
2023/10/24 23:58:48;;;;;;;7.60;7.23;;;13.40;45.00;;;;;;6186006;23;20152;-78
